Njord R — OYOZ2 — position and weather

sailwx.info

Track history (hours):
 
Tides and Currents Weather Stations Pressure Air Temp Water Temp Dewpoint Dewpoint Depression Visibility Wind Speed Wind Dir Waves Ship Positions

Njord R

Last reported at 2017-Nov-24 09:27 UTC. Time now 2017-Nov-24 09:40 UTC.
Position N 51°34' E 003°25'.

Length 111 m; draft 4.3 m.

Type: Dredging. MMSI: 219387000.

Date/timePositionNaut miles runAvg speedWind from/ knotsBaromVisibWave heightAir tempDewpointWater temp
2017-Nov-24 09:27N 51°34' E 003°25'510.1
2017-Nov-24 09:00N 51°39' E 003°23'1 2.9
2017-Nov-24 08:30N 51°40' E 003°23'0 0.0
2017-Nov-24 08:00N 51°40' E 003°23'1 1.2
2017-Nov-24 07:26N 51°40' E 003°22'4 9.0
2017-Nov-24 07:01N 51°36' E 003°24'3 6.9
2017-Nov-24 06:30N 51°33' E 003°27'0 0.1
2017-Nov-24 06:00N 51°33' E 003°27'7 8.2
2017-Nov-24 05:11N 51°39' E 003°22'1 3.7
2017-Nov-24 05:00N 51°40' E 003°22'0 0.3
2017-Nov-24 04:25N 51°40' E 003°22'0 0.9
2017-Nov-24 03:58N 51°40' E 003°23'0 0.9
2017-Nov-24 03:29N 51°40' E 003°23'510.0
2017-Nov-24 03:00N 51°36' E 003°25'3 4.9
2017-Nov-24 02:27N 51°33' E 003°28'0 0.0
2017-Nov-24 02:00N 51°33' E 003°28'2 3.9
2017-Nov-24 01:30N 51°35' E 003°25'510.8
2017-Nov-24 01:00N 51°39' E 003°22'1 1.2
2017-Nov-24 00:30N 51°40' E 003°22'0 0.5
2017-Nov-24 00:00N 51°40' E 003°22'0 0.8
2017-Nov-23 23:30N 51°40' E 003°22'5 9.6
2017-Nov-23 23:00N 51°35' E 003°24'4 7.2
2017-Nov-23 22:30N 51°32' E 003°26'2 4.2
2017-Nov-23 22:00N 51°34' E 003°25'5 9.9
2017-Nov-23 21:30N 51°38' E 003°22'2 3.9
2017-Nov-23 21:00N 51°40' E 003°23'0 0.8
2017-Nov-23 20:26N 51°40' E 003°22'1 1.4
2017-Nov-23 19:59N 51°40' E 003°22'4 8.6
2017-Nov-23 19:30N 51°36' E 003°25'3 6.6
2017-Nov-23 19:00N 51°33' E 003°28'0 0.2
2017-Nov-23 18:29N 51°33' E 003°28'1 1.8
2017-Nov-23 18:00N 51°34' E 003°26'4 8.3
2017-Nov-23 17:28N 51°37' E 003°23'3 5.6
2017-Nov-23 17:00N 51°40' E 003°22'1 1.1
2017-Nov-23 16:30N 51°40' E 003°22'0 0.2
2017-Nov-23 15:52N 51°40' E 003°22'0 1.0
2017-Nov-23 15:30N 51°40' E 003°22'1 1.2
2017-Nov-23 15:00N 51°40' E 003°22'2 4.0
2017-Nov-23 14:30N 51°38' E 003°23'510.8
2017-Nov-23 14:00N 51°34' E 003°27'0 0.7
2017-Nov-23 13:27N 51°33' E 003°28'0 0.1
2017-Nov-23 13:00N 51°33' E 003°28'1 2.0
2017-Nov-23 12:30N 51°34' E 003°26'3 6.2
2017-Nov-23 12:00N 51°36' E 003°24'4 7.7
2017-Nov-23 11:30N 51°40' E 003°23'0 0.2
2017-Nov-23 10:55N 51°40' E 003°23'1 1.5
2017-Nov-23 10:27N 51°40' E 003°22'1 2.4
2017-Nov-23 10:00N 51°39' E 003°22'611.7
2017-Nov-23 09:30N 51°33' E 003°26'1 1.2
2017-Nov-23 08:59N 51°32' E 003°26'5 8.5
2017-Nov-23 08:26N 51°37' E 003°23'3 7.6
2017-Nov-23 08:00N 51°40' E 003°22'1 1.0
2017-Nov-23 07:29N 51°40' E 003°22'1 1.3
2017-Nov-23 07:00N 51°40' E 003°23'0 0.8
2017-Nov-23 06:30N 51°40' E 003°23'0 0.5
2017-Nov-23 06:00N 51°40' E 003°23'611.7
2017-Nov-23 05:30N 51°35' E 003°26'2 3.0
2017-Nov-23 04:59N 51°33' E 003°28'2 4.0
2017-Nov-23 04:30N 51°35' E 003°25'5 8.1
2017-Nov-23 03:56N 51°39' E 003°22'2 3.2
2017-Nov-23 03:27N 51°40' E 003°23'0 0.8
2017-Nov-23 02:54N 51°40' E 003°22'1 1.2
2017-Nov-23 02:25N 51°40' E 003°22'4 9.8
2017-Nov-23 02:00N 51°36' E 003°24'4 8.2
2017-Nov-23 01:29N 51°32' E 003°26'3 5.3
2017-Nov-23 01:00N 51°34' E 003°25'610.2
2017-Nov-23 00:26N 51°39' E 003°22'1 1.9
2017-Nov-22 23:57N 51°40' E 003°23'0 0.8
2017-Nov-22 23:30N 51°40' E 003°22'0 0.9
2017-Nov-22 22:58N 51°40' E 003°22'5 9.9
2017-Nov-22 22:31N 51°35' E 003°24'4 6.0
2017-Nov-22 21:53N 51°32' E 003°26'3 8.1
2017-Nov-22 21:31N 51°35' E 003°25'5 9.0
2017-Nov-22 20:57N 51°39' E 003°22'0 0.8
2017-Nov-22 20:31N 51°40' E 003°22'0 0.5
2017-Nov-22 19:58N 51°40' E 003°21'0 0.4
2017-Nov-22 19:27N 51°40' E 003°22'  
2017-Nov-20 00:30N 51°40' E 003°23'0 0.7
2017-Nov-20 00:00N 51°40' E 003°23'1 1.1
2017-Nov-19 23:25N 51°40' E 003°22'2 5.4
2017-Nov-19 23:00N 51°38' E 003°23'510.6
2017-Nov-19 22:30N 51°33' E 003°26'1 2.0
2017-Nov-19 22:00N 51°32' E 003°26'5 9.8
2017-Nov-19 21:27N 51°37' E 003°23'3 6.0
2017-Nov-19 20:55N 51°40' E 003°23'1 1.1
2017-Nov-19 20:25N 51°40' E 003°22'1 1.3
2017-Nov-19 20:01N 51°40' E 003°22'510.1
2017-Nov-19 19:30N 51°35' E 003°24'3 6.5
2017-Nov-19 19:00N 51°32' E 003°26'4 6.6
2017-Nov-19 18:27N 51°35' E 003°24'4 9.1
2017-Nov-19 18:00N 51°39' E 003°22'1 2.4
2017-Nov-19 17:30N 51°40' E 003°23'0 0.9
2017-Nov-19 16:59N 51°40' E 003°22'0 0.4
2017-Nov-19 16:27N 51°40' E 003°22'0 0.7
2017-Nov-19 16:00N 51°40' E 003°22'611.3
2017-Nov-19 15:30N 51°34' E 003°25'3 5.3
2017-Nov-19 15:01N 51°32' E 003°26'1 2.7
2017-Nov-19 14:29N 51°33' E 003°25'4 8.6
2017-Nov-19 14:00N 51°37' E 003°23'3 5.6
2017-Nov-19 13:28N 51°40' E 003°22'0 0.6
2017-Nov-19 13:00N 51°40' E 003°22'0 0.6
2017-Nov-19 12:30N 51°40' E 003°22'0 0.8
2017-Nov-19 12:00N 51°40' E 003°22'4 7.6
2017-Nov-19 11:29N 51°36' E 003°24'5 9.7
2017-Nov-19 11:00N 51°31' E 003°26'3 4.9
2017-Nov-19 10:30N 51°34' E 003°25'611.1
2017-Nov-19 09:58N 51°39' E 003°21'1 1.9
2017-Nov-19 09:30N 51°40' E 003°23'1 1.0
2017-Nov-19 08:56N 51°40' E 003°22'0 1.1
2017-Nov-19 08:30N 51°39' E 003°22'5 9.5
2017-Nov-19 08:00N 51°35' E 003°24'4 7.1
2017-Nov-19 07:30N 51°32' E 003°26'2 3.1
2017-Nov-19 07:00N 51°33' E 003°26'5 9.4
2017-Nov-19 06:30N 51°37' E 003°23'2 4.5
2017-Nov-19 06:00N 51°40' E 003°22'0 0.1
2017-Nov-19 05:29N 51°40' E 003°22'0 0.3
2017-Nov-19 05:00N 51°40' E 003°22'3 6.4
2017-Nov-19 04:30N 51°37' E 003°23'511.1
2017-Nov-19 04:00N 51°32' E 003°26'1 1.0
2017-Nov-19 03:30N 51°32' E 003°26'4 8.1
2017-Nov-19 03:00N 51°36' E 003°24'4 8.1
2017-Nov-19 02:30N 51°40' E 003°22'0 0.7
2017-Nov-19 02:01N 51°40' E 003°23'1 1.1
2017-Nov-19 01:30N 51°40' E 003°23'1 1.8
2017-Nov-19 01:00N 51°40' E 003°22'4 8.8
2017-Nov-19 00:30N 51°35' E 003°25'3 5.4
2017-Nov-18 23:59N 51°33' E 003°28'0 0.2
2017-Nov-18 23:30N 51°33' E 003°28'0 0.0
2017-Nov-18 23:00N 51°33' E 003°28'1 1.2
2017-Nov-18 22:30N 51°33' E 003°27'4 7.1
2017-Nov-18 21:59N 51°36' E 003°24'4 7.7
2017-Nov-18 21:30N 51°40' E 003°22'0 0.8
2017-Nov-18 21:00N 51°40' E 003°22'1 1.2
2017-Nov-18 20:30N 51°40' E 003°22'1 2.7
2017-Nov-18 20:00N 51°39' E 003°22'510.4
2017-Nov-18 19:30N 51°34' E 003°25'2 4.4
2017-Nov-18 19:00N 51°32' E 003°26'7 9.8
2017-Nov-18 18:19N 51°38' E 003°23'2 6.5
2017-Nov-18 18:00N 51°40' E 003°22'0 0.9
2017-Nov-18 17:30N 51°40' E 003°23'1 1.0
2017-Nov-18 16:57N 51°40' E 003°22'0 1.0
2017-Nov-18 16:30N 51°40' E 003°22'4 8.7
2017-Nov-18 16:00N 51°36' E 003°24'3 6.0
2017-Nov-18 15:30N 51°33' E 003°28'0 0.0
2017-Nov-18 15:00N 51°33' E 003°28'0 0.0
2017-Nov-18 14:30N 51°33' E 003°28'1 2.4
2017-Nov-18 14:00N 51°34' E 003°26'5 9.3
2017-Nov-18 13:30N 51°38' E 003°23'2 4.0
2017-Nov-18 13:01N 51°40' E 003°22'1 1.1
2017-Nov-18 12:30N 51°40' E 003°23'1 1.7
2017-Nov-18 11:59N 51°40' E 003°22'3 5.7
2017-Nov-18 11:31N 51°37' E 003°23'5 9.3
2017-Nov-18 11:01N 51°33' E 003°28'0 0.1
2017-Nov-18 10:31N 51°33' E 003°28'0 0.3
2017-Nov-18 10:00N 51°34' E 003°28'3 5.3
2017-Nov-18 09:30N 51°35' E 003°24'4 9.0
2017-Nov-18 09:01N 51°40' E 003°22'0 0.6
2017-Nov-18 08:27N 51°40' E 003°22'0 0.9
2017-Nov-18 08:00N 51°40' E 003°21'2 4.5
2017-Nov-18 07:30N 51°38' E 003°23'511.1
2017-Nov-18 07:01N 51°32' E 003°25'1 1.8
2017-Nov-18 06:30N 51°32' E 003°26'510.0
2017-Nov-18 06:00N 51°36' E 003°24'4 6.8
2017-Nov-18 05:28N 51°40' E 003°22'0 0.5
2017-Nov-18 04:59N 51°40' E 003°22'0 0.6
2017-Nov-18 04:31N 51°40' E 003°22'510.0
2017-Nov-18 04:00N 51°35' E 003°25'2 4.5
2017-Nov-18 03:30N 51°33' E 003°28'0 0.1
2017-Nov-18 03:00N 51°33' E 003°28'0 0.3
2017-Nov-18 02:31N 51°34' E 003°28'3 6.0
2017-Nov-18 01:57N 51°36' E 003°24'4 8.5
2017-Nov-18 01:29N 51°40' E 003°22'0 0.8
2017-Nov-18 00:59N 51°40' E 003°22'0 0.9
2017-Nov-18 00:30N 51°40' E 003°23'1 1.5
2017-Nov-18 00:01N 51°40' E 003°22'510.0
2017-Nov-17 23:31N 51°35' E 003°25'2 4.5
2017-Nov-17 23:00N 51°33' E 003°28'0 0.0
2017-Nov-17 22:30N 51°33' E 003°28'0 0.0
2017-Nov-17 22:00N 51°33' E 003°28'0 0.4
2017-Nov-17 21:30N 51°34' E 003°28'1 1.8
2017-Nov-17 21:00N 51°34' E 003°26'5 9.3
2017-Nov-17 20:30N 51°38' E 003°23'2 4.8
2017-Nov-17 20:00N 51°40' E 003°23'1 1.2
2017-Nov-17 19:16N 51°40' E 003°22'0 0.8
2017-Nov-17 18:59N 51°40' E 003°21'510.0
2017-Nov-17 18:31N 51°35' E 003°24'4 7.8
2017-Nov-17 18:01N 51°32' E 003°26'9 7.3
2017-Nov-17 16:50N 51°40' E 003°22'0 0.8
2017-Nov-17 16:25N 51°40' E 003°22'1 1.5
2017-Nov-17 15:56N 51°40' E 003°23'0 0.8
2017-Nov-17 15:25N 51°40' E 003°22'1 3.3
2017-Nov-17 15:00N 51°39' E 003°22'612.1
2017-Nov-17 14:31N 51°34' E 003°27'0 0.8
2017-Nov-17 14:00N 51°33' E 003°28'0 0.3
2017-Nov-17 13:30N 51°33' E 003°28'3 5.5
2017-Nov-17 12:59N 51°36' E 003°24'5 9.3
2017-Nov-17 12:29N 51°40' E 003°22'1 1.1
2017-Nov-17 11:54N 51°40' E 003°23'0 1.1
2017-Nov-17 11:30N 51°40' E 003°22'1 1.1
2017-Nov-17 10:59N 51°40' E 003°21'510.2
2017-Nov-17 10:30N 51°35' E 003°25'3 5.3
2017-Nov-17 10:00N 51°33' E 003°28'0 0.1
2017-Nov-17 09:30N 51°33' E 003°28'2 4.3
2017-Nov-17 08:57N 51°35' E 003°25'5 9.3
2017-Nov-17 08:23N 51°40' E 003°22'0 0.1
2017-Nov-17 07:13N 51°40' E 003°22'0 0.9
2017-Nov-17 06:59N 51°40' E 003°22'2 4.5
2017-Nov-17 06:31N 51°38' E 003°23'611.3
2017-Nov-17 06:01N 51°32' E 003°26'1 1.5
2017-Nov-17 05:29N 51°33' E 003°25'510.0
2017-Nov-17 04:56N 51°38' E 003°22'2 2.9
2017-Nov-17 04:24N 51°40' E 003°22'1 1.6
2017-Nov-17 03:59N 51°40' E 003°23'1 1.0
2017-Nov-17 03:18N 51°40' E 003°22'1 1.4
2017-Nov-17 02:51N 51°39' E 003°22'412.0
2017-Nov-17 02:29N 51°35' E 003°25'3 5.4
2017-Nov-17 02:00N 51°33' E 003°28'0 0.2
2017-Nov-17 01:30N 51°33' E 003°28'1 2.4
2017-Nov-17 00:58N 51°34' E 003°26'510.1
2017-Nov-17 00:30N 51°38' E 003°22'2 3.9
2017-Nov-17 00:00N 51°40' E 003°23'1 0.9
2017-Nov-16 23:26N 51°40' E 003°22'1 1.3
2017-Nov-16 23:00N 51°40' E 003°22'5 9.1
2017-Nov-16 22:30N 51°35' E 003°25'3 5.4
2017-Nov-16 22:00N 51°33' E 003°28'0 0.1
2017-Nov-16 21:28N 51°33' E 003°28'0 0.5
2017-Nov-16 21:00N 51°34' E 003°27'4 7.1
2017-Nov-16 20:30N 51°36' E 003°24'4 7.5
2017-Nov-16 20:00N 51°40' E 003°22'0 0.5
2017-Nov-16 19:30N 51°40' E 003°22'1 1.3
2017-Nov-16 18:59N 51°40' E 003°22'3 5.5
2017-Nov-16 18:30N 51°37' E 003°23'510.8
2017-Nov-16 18:00N 51°32' E 003°26'1 1.4
2017-Nov-16 17:30N 51°33' E 003°26'5 9.4
2017-Nov-16 16:56N 51°38' E 003°22'2 4.8
2017-Nov-16 16:30N 51°40' E 003°23'0 0.5
2017-Nov-16 15:33N 51°40' E 003°22'0 1.5
2017-Nov-16 15:29N 51°40' E 003°22'2 3.9
2017-Nov-16 15:00N 51°38' E 003°23'713.4
2017-Nov-16 14:30N 51°32' E 003°26'0 0.2
2017-Nov-16 13:59N 51°32' E 003°26'4 8.1
2017-Nov-16 13:30N 51°36' E 003°24'4 8.0
2017-Nov-16 12:58N 51°40' E 003°22'1 0.9
2017-Nov-16 12:21N 51°40' E 003°23'0 0.8
2017-Nov-16 12:00N 51°40' E 003°23'1 1.6
2017-Nov-16 11:30N 51°40' E 003°22'611.6
2017-Nov-16 10:58N 51°34' E 003°26'1 0.7
2017-Nov-16 09:34N 51°33' E 003°28'0 3.6
2017-Nov-16 09:30N 51°33' E 003°27'7 8.7
2017-Nov-16 08:41N 51°40' E 003°22'1 2.5
2017-Nov-16 08:18N 51°40' E 003°23'0 1.4
2017-Nov-16 07:58N 51°40' E 003°22'1 1.3
2017-Nov-16 07:26N 51°40' E 003°22'2 4.1
2017-Nov-16 07:00N 51°38' E 003°22'4 8.9
2017-Nov-16 06:30N 51°34' E 003°25'2 4.8
2017-Nov-16 06:00N 51°32' E 003°26'5 8.4
2017-Nov-16 05:27N 51°36' E 003°24'4 7.4
2017-Nov-16 04:54N 51°40' E 003°21'0 0.9
2017-Nov-16 04:30N 51°40' E 003°22'0 0.1
2017-Nov-16 03:58N 51°40' E 003°22'1 3.1
2017-Nov-16 03:30N 51°39' E 003°22'510.4
2017-Nov-16 03:00N 51°34' E 003°26'1 2.5
2017-Nov-16 02:30N 51°33' E 003°28'0 0.0
2017-Nov-16 02:00N 51°33' E 003°28'0 0.1
2017-Nov-16 01:30N 51°33' E 003°28'3 4.1
2017-Nov-16 00:51N 51°35' E 003°25'3 8.9
2017-Nov-16 00:30N 51°38' E 003°22'2 3.4
2017-Nov-16 00:00N 51°40' E 003°22'1 1.3
2017-Nov-15 23:30N 51°40' E 003°23'1 1.3
2017-Nov-15 23:01N 51°40' E 003°22'5 9.3
2017-Nov-15 22:30N 51°35' E 003°25'3 5.6
2017-Nov-15 22:00N 51°33' E 003°28'0 0.1
2017-Nov-15 21:30N 51°33' E 003°28'0 0.0
2017-Nov-15 21:00N 51°33' E 003°28'0 0.8
2017-Nov-15 20:30N 51°33' E 003°27'4 7.1
2017-Nov-15 19:55N 51°37' E 003°23'3 7.2
2017-Nov-15 19:30N 51°40' E 003°22'0 0.3
2017-Nov-15 18:59N 51°40' E 003°22'0 0.8
2017-Nov-15 18:28N 51°40' E 003°22'0 0.7
2017-Nov-15 18:01N 51°40' E 003°22'2 3.7
2017-Nov-15 17:30N 51°38' E 003°22'612.1
2017-Nov-15 17:00N 51°32' E 003°25'611.2
2017-Nov-15 16:30N 51°28' E 003°31'611.8
2017-Nov-15 16:00N 51°27' E 003°40'2 4.4
2017-Nov-15 15:30N 51°28' E 003°43'0 0.0
2017-Nov-15 15:00N 51°28' E 003°43'0 0.2
2017-Nov-15 13:43N 51°28' E 003°43'0 0.0
2017-Nov-15 13:19N 51°28' E 003°43'0 0.0
2017-Nov-15 12:49N 51°28' E 003°43'0 0.0
2017-Nov-15 12:19N 51°28' E 003°43'0 0.0
2017-Nov-15 11:55N 51°28' E 003°43'0 0.0
2017-Nov-15 11:13N 51°28' E 003°43'0 0.0
2017-Nov-15 10:43N 51°28' E 003°43'0 0.0
2017-Nov-15 10:28N 51°28' E 003°43'0 0.0
2017-Nov-15 09:59N 51°28' E 003°43'0 0.0
2017-Nov-15 09:30N 51°28' E 003°43'0 0.0
2017-Nov-15 09:00N 51°28' E 003°43'0 0.0
2017-Nov-15 08:30N 51°28' E 003°43'0 0.0
2017-Nov-15 07:58N 51°28' E 003°43'2 4.7
2017-Nov-15 07:30N 51°27' E 003°40'4 7.6
2017-Nov-15 07:01N 51°26' E 003°35'612.2
2017-Nov-15 06:30N 51°30' E 003°28'2 3.8
2017-Nov-15 06:00N 51°32' E 003°26'1 2.4
2017-Nov-15 05:30N 51°33' E 003°25'510.2
2017-Nov-15 05:00N 51°38' E 003°23'2 3.9
2017-Nov-15 04:24N 51°40' E 003°23'0 0.7
2017-Nov-15 04:00N 51°40' E 003°23'0 0.9
2017-Nov-15 03:29N 51°40' E 003°22'1 2.5
2017-Nov-15 03:00N 51°39' E 003°22'612.8
2017-Nov-15 02:30N 51°33' E 003°25'1 2.4
2017-Nov-15 02:00N 51°32' E 003°26'0 0.3
2017-Nov-15 01:30N 51°32' E 003°26'3 5.7
2017-Nov-15 01:00N 51°34' E 003°24'4 8.9
2017-Nov-15 00:30N 51°39' E 003°22'1 2.3
2017-Nov-14 23:59N 51°40' E 003°22'1 1.1
2017-Nov-14 23:29N 51°40' E 003°23'0 0.7
2017-Nov-14 23:00N 51°40' E 003°22'4 6.8
2017-Nov-14 22:28N 51°37' E 003°23'4 9.0
2017-Nov-14 22:01N 51°33' E 003°28'0 0.0
2017-Nov-14 21:30N 51°33' E 003°28'0 0.0
2017-Nov-14 21:00N 51°33' E 003°28'0 0.0
2017-Nov-14 20:30N 51°33' E 003°28'0 0.9
2017-Nov-14 20:00N 51°33' E 003°27'0 0.9
2017-Nov-14 19:30N 51°33' E 003°26'2 4.4
2017-Nov-14 19:00N 51°35' E 003°24'5 9.6
2017-Nov-14 18:30N 51°40' E 003°23'0 0.3
2017-Nov-14 18:00N 51°40' E 003°22'0 0.7
2017-Nov-14 17:28N 51°40' E 003°23'0 0.8
2017-Nov-14 17:00N 51°40' E 003°22'0 0.8
2017-Nov-14 16:30N 51°40' E 003°22'0 0.0
2017-Nov-14 16:00N 51°40' E 003°22'0 0.5
2017-Nov-14 15:30N 51°40' E 003°22'0 0.5
2017-Nov-14 15:00N 51°40' E 003°22'611.2
2017-Nov-14 14:30N 51°35' E 003°25'3 6.2
2017-Nov-14 14:00N 51°32' E 003°26'1 2.6
2017-Nov-14 13:30N 51°33' E 003°26'3 6.2
2017-Nov-14 13:00N 51°36' E 003°24'4 8.6
2017-Nov-14 12:29N 51°40' E 003°22'1 1.3
2017-Nov-14 12:00N 51°40' E 003°23'1 1.4
2017-Nov-14 11:30N 51°40' E 003°22'1 1.1
2017-Nov-14 11:00N 51°40' E 003°23'1 2.1
2017-Nov-14 10:29N 51°39' E 003°22'612.0
2017-Nov-14 10:00N 51°34' E 003°26'1 2.6
2017-Nov-14 09:31N 51°33' E 003°28'  
Track history (hours):
 
Tides and Currents Weather Stations Pressure Air Temp Water Temp Dewpoint Dewpoint Depression Visibility Wind Speed Wind Dir Waves Ship Positions

Njord R

Last reported at 2017-Nov-24 09:27 UTC. Time now 2017-Nov-24 09:40 UTC.
Position N 51°34' E 003°25'.

Length 111 m; draft 4.3 m.

Type: Dredging. MMSI: 219387000.

Date/timePositionNaut miles runAvg speedWind from/ knotsBaromVisibWave heightAir tempDewpointWater temp
2017-Nov-24 09:27N 51°34' E 003°25'510.1
2017-Nov-24 09:00N 51°39' E 003°23'1 2.9
2017-Nov-24 08:30N 51°40' E 003°23'0 0.0
2017-Nov-24 08:00N 51°40' E 003°23'1 1.2
2017-Nov-24 07:26N 51°40' E 003°22'4 9.0
2017-Nov-24 07:01N 51°36' E 003°24'3 6.9
2017-Nov-24 06:30N 51°33' E 003°27'0 0.1
2017-Nov-24 06:00N 51°33' E 003°27'7 8.2
2017-Nov-24 05:11N 51°39' E 003°22'1 3.7
2017-Nov-24 05:00N 51°40' E 003°22'0 0.3
2017-Nov-24 04:25N 51°40' E 003°22'0 0.9
2017-Nov-24 03:58N 51°40' E 003°23'0 0.9
2017-Nov-24 03:29N 51°40' E 003°23'510.0
2017-Nov-24 03:00N 51°36' E 003°25'3 4.9
2017-Nov-24 02:27N 51°33' E 003°28'0 0.0
2017-Nov-24 02:00N 51°33' E 003°28'2 3.9
2017-Nov-24 01:30N 51°35' E 003°25'510.8
2017-Nov-24 01:00N 51°39' E 003°22'1 1.2
2017-Nov-24 00:30N 51°40' E 003°22'0 0.5
2017-Nov-24 00:00N 51°40' E 003°22'0 0.8
2017-Nov-23 23:30N 51°40' E 003°22'5 9.6
2017-Nov-23 23:00N 51°35' E 003°24'4 7.2
2017-Nov-23 22:30N 51°32' E 003°26'2 4.2
2017-Nov-23 22:00N 51°34' E 003°25'5 9.9
2017-Nov-23 21:30N 51°38' E 003°22'2 3.9
2017-Nov-23 21:00N 51°40' E 003°23'0 0.8
2017-Nov-23 20:26N 51°40' E 003°22'1 1.4
2017-Nov-23 19:59N 51°40' E 003°22'4 8.6
2017-Nov-23 19:30N 51°36' E 003°25'3 6.6
2017-Nov-23 19:00N 51°33' E 003°28'0 0.2
2017-Nov-23 18:29N 51°33' E 003°28'1 1.8
2017-Nov-23 18:00N 51°34' E 003°26'4 8.3
2017-Nov-23 17:28N 51°37' E 003°23'3 5.6
2017-Nov-23 17:00N 51°40' E 003°22'1 1.1
2017-Nov-23 16:30N 51°40' E 003°22'0 0.2
2017-Nov-23 15:52N 51°40' E 003°22'0 1.0
2017-Nov-23 15:30N 51°40' E 003°22'1 1.2
2017-Nov-23 15:00N 51°40' E 003°22'2 4.0
2017-Nov-23 14:30N 51°38' E 003°23'510.8
2017-Nov-23 14:00N 51°34' E 003°27'0 0.7
2017-Nov-23 13:27N 51°33' E 003°28'0 0.1
2017-Nov-23 13:00N 51°33' E 003°28'1 2.0
2017-Nov-23 12:30N 51°34' E 003°26'3 6.2
2017-Nov-23 12:00N 51°36' E 003°24'4 7.7
2017-Nov-23 11:30N 51°40' E 003°23'0 0.2
2017-Nov-23 10:55N 51°40' E 003°23'1 1.5
2017-Nov-23 10:27N 51°40' E 003°22'1 2.4
2017-Nov-23 10:00N 51°39' E 003°22'611.7
2017-Nov-23 09:30N 51°33' E 003°26'1 1.2
2017-Nov-23 08:59N 51°32' E 003°26'5 8.5
2017-Nov-23 08:26N 51°37' E 003°23'3 7.6
2017-Nov-23 08:00N 51°40' E 003°22'1 1.0
2017-Nov-23 07:29N 51°40' E 003°22'1 1.3
2017-Nov-23 07:00N 51°40' E 003°23'0 0.8
2017-Nov-23 06:30N 51°40' E 003°23'0 0.5
2017-Nov-23 06:00N 51°40' E 003°23'611.7
2017-Nov-23 05:30N 51°35' E 003°26'2 3.0
2017-Nov-23 04:59N 51°33' E 003°28'2 4.0
2017-Nov-23 04:30N 51°35' E 003°25'5 8.1
2017-Nov-23 03:56N 51°39' E 003°22'2 3.2
2017-Nov-23 03:27N 51°40' E 003°23'0 0.8
2017-Nov-23 02:54N 51°40' E 003°22'1 1.2
2017-Nov-23 02:25N 51°40' E 003°22'4 9.8
2017-Nov-23 02:00N 51°36' E 003°24'4 8.2
2017-Nov-23 01:29N 51°32' E 003°26'3 5.3
2017-Nov-23 01:00N 51°34' E 003°25'610.2
2017-Nov-23 00:26N 51°39' E 003°22'1 1.9
2017-Nov-22 23:57N 51°40' E 003°23'0 0.8
2017-Nov-22 23:30N 51°40' E 003°22'0 0.9
2017-Nov-22 22:58N 51°40' E 003°22'5 9.9
2017-Nov-22 22:31N 51°35' E 003°24'4 6.0
2017-Nov-22 21:53N 51°32' E 003°26'3 8.1
2017-Nov-22 21:31N 51°35' E 003°25'5 9.0
2017-Nov-22 20:57N 51°39' E 003°22'0 0.8
2017-Nov-22 20:31N 51°40' E 003°22'0 0.5
2017-Nov-22 19:58N 51°40' E 003°21'0 0.4
2017-Nov-22 19:27N 51°40' E 003°22'  
2017-Nov-20 00:30N 51°40' E 003°23'0 0.7
2017-Nov-20 00:00N 51°40' E 003°23'1 1.1
2017-Nov-19 23:25N 51°40' E 003°22'2 5.4
2017-Nov-19 23:00N 51°38' E 003°23'510.6
2017-Nov-19 22:30N 51°33' E 003°26'1 2.0
2017-Nov-19 22:00N 51°32' E 003°26'5 9.8
2017-Nov-19 21:27N 51°37' E 003°23'3 6.0
2017-Nov-19 20:55N 51°40' E 003°23'1 1.1
2017-Nov-19 20:25N 51°40' E 003°22'1 1.3
2017-Nov-19 20:01N 51°40' E 003°22'510.1
2017-Nov-19 19:30N 51°35' E 003°24'3 6.5
2017-Nov-19 19:00N 51°32' E 003°26'4 6.6
2017-Nov-19 18:27N 51°35' E 003°24'4 9.1
2017-Nov-19 18:00N 51°39' E 003°22'1 2.4
2017-Nov-19 17:30N 51°40' E 003°23'0 0.9
2017-Nov-19 16:59N 51°40' E 003°22'0 0.4
2017-Nov-19 16:27N 51°40' E 003°22'0 0.7
2017-Nov-19 16:00N 51°40' E 003°22'611.3
2017-Nov-19 15:30N 51°34' E 003°25'3 5.3
2017-Nov-19 15:01N 51°32' E 003°26'1 2.7
2017-Nov-19 14:29N 51°33' E 003°25'4 8.6
2017-Nov-19 14:00N 51°37' E 003°23'3 5.6
2017-Nov-19 13:28N 51°40' E 003°22'0 0.6
2017-Nov-19 13:00N 51°40' E 003°22'0 0.6
2017-Nov-19 12:30N 51°40' E 003°22'0 0.8
2017-Nov-19 12:00N 51°40' E 003°22'4 7.6
2017-Nov-19 11:29N 51°36' E 003°24'5 9.7
2017-Nov-19 11:00N 51°31' E 003°26'3 4.9
2017-Nov-19 10:30N 51°34' E 003°25'611.1
2017-Nov-19 09:58N 51°39' E 003°21'1 1.9
2017-Nov-19 09:30N 51°40' E 003°23'1 1.0
2017-Nov-19 08:56N 51°40' E 003°22'0 1.1
2017-Nov-19 08:30N 51°39' E 003°22'5 9.5
2017-Nov-19 08:00N 51°35' E 003°24'4 7.1
2017-Nov-19 07:30N 51°32' E 003°26'2 3.1
2017-Nov-19 07:00N 51°33' E 003°26'5 9.4
2017-Nov-19 06:30N 51°37' E 003°23'2 4.5
2017-Nov-19 06:00N 51°40' E 003°22'0 0.1
2017-Nov-19 05:29N 51°40' E 003°22'0 0.3
2017-Nov-19 05:00N 51°40' E 003°22'3 6.4
2017-Nov-19 04:30N 51°37' E 003°23'511.1
2017-Nov-19 04:00N 51°32' E 003°26'1 1.0
2017-Nov-19 03:30N 51°32' E 003°26'4 8.1
2017-Nov-19 03:00N 51°36' E 003°24'4 8.1
2017-Nov-19 02:30N 51°40' E 003°22'0 0.7
2017-Nov-19 02:01N 51°40' E 003°23'1 1.1
2017-Nov-19 01:30N 51°40' E 003°23'1 1.8
2017-Nov-19 01:00N 51°40' E 003°22'4 8.8
2017-Nov-19 00:30N 51°35' E 003°25'3 5.4
2017-Nov-18 23:59N 51°33' E 003°28'0 0.2
2017-Nov-18 23:30N 51°33' E 003°28'0 0.0
2017-Nov-18 23:00N 51°33' E 003°28'1 1.2
2017-Nov-18 22:30N 51°33' E 003°27'4 7.1
2017-Nov-18 21:59N 51°36' E 003°24'4 7.7
2017-Nov-18 21:30N 51°40' E 003°22'0 0.8
2017-Nov-18 21:00N 51°40' E 003°22'1 1.2
2017-Nov-18 20:30N 51°40' E 003°22'1 2.7
2017-Nov-18 20:00N 51°39' E 003°22'510.4
2017-Nov-18 19:30N 51°34' E 003°25'2 4.4
2017-Nov-18 19:00N 51°32' E 003°26'7 9.8
2017-Nov-18 18:19N 51°38' E 003°23'2 6.5
2017-Nov-18 18:00N 51°40' E 003°22'0 0.9
2017-Nov-18 17:30N 51°40' E 003°23'1 1.0
2017-Nov-18 16:57N 51°40' E 003°22'0 1.0
2017-Nov-18 16:30N 51°40' E 003°22'4 8.7
2017-Nov-18 16:00N 51°36' E 003°24'3 6.0
2017-Nov-18 15:30N 51°33' E 003°28'0 0.0
2017-Nov-18 15:00N 51°33' E 003°28'0 0.0
2017-Nov-18 14:30N 51°33' E 003°28'1 2.4
2017-Nov-18 14:00N 51°34' E 003°26'5 9.3
2017-Nov-18 13:30N 51°38' E 003°23'2 4.0
2017-Nov-18 13:01N 51°40' E 003°22'1 1.1
2017-Nov-18 12:30N 51°40' E 003°23'1 1.7
2017-Nov-18 11:59N 51°40' E 003°22'3 5.7
2017-Nov-18 11:31N 51°37' E 003°23'5 9.3
2017-Nov-18 11:01N 51°33' E 003°28'0 0.1
2017-Nov-18 10:31N 51°33' E 003°28'0 0.3
2017-Nov-18 10:00N 51°34' E 003°28'3 5.3
2017-Nov-18 09:30N 51°35' E 003°24'4 9.0
2017-Nov-18 09:01N 51°40' E 003°22'0 0.6
2017-Nov-18 08:27N 51°40' E 003°22'0 0.9
2017-Nov-18 08:00N 51°40' E 003°21'2 4.5
2017-Nov-18 07:30N 51°38' E 003°23'511.1
2017-Nov-18 07:01N 51°32' E 003°25'1 1.8
2017-Nov-18 06:30N 51°32' E 003°26'510.0
2017-Nov-18 06:00N 51°36' E 003°24'4 6.8
2017-Nov-18 05:28N 51°40' E 003°22'0 0.5
2017-Nov-18 04:59N 51°40' E 003°22'0 0.6
2017-Nov-18 04:31N 51°40' E 003°22'510.0
2017-Nov-18 04:00N 51°35' E 003°25'2 4.5
2017-Nov-18 03:30N 51°33' E 003°28'0 0.1
2017-Nov-18 03:00N 51°33' E 003°28'0 0.3
2017-Nov-18 02:31N 51°34' E 003°28'3 6.0
2017-Nov-18 01:57N 51°36' E 003°24'4 8.5
2017-Nov-18 01:29N 51°40' E 003°22'0 0.8
2017-Nov-18 00:59N 51°40' E 003°22'0 0.9
2017-Nov-18 00:30N 51°40' E 003°23'1 1.5
2017-Nov-18 00:01N 51°40' E 003°22'510.0
2017-Nov-17 23:31N 51°35' E 003°25'2 4.5
2017-Nov-17 23:00N 51°33' E 003°28'0 0.0
2017-Nov-17 22:30N 51°33' E 003°28'0 0.0
2017-Nov-17 22:00N 51°33' E 003°28'0 0.4
2017-Nov-17 21:30N 51°34' E 003°28'1 1.8
2017-Nov-17 21:00N 51°34' E 003°26'5 9.3
2017-Nov-17 20:30N 51°38' E 003°23'2 4.8
2017-Nov-17 20:00N 51°40' E 003°23'1 1.2
2017-Nov-17 19:16N 51°40' E 003°22'0 0.8
2017-Nov-17 18:59N 51°40' E 003°21'510.0
2017-Nov-17 18:31N 51°35' E 003°24'4 7.8
2017-Nov-17 18:01N 51°32' E 003°26'9 7.3
2017-Nov-17 16:50N 51°40' E 003°22'0 0.8
2017-Nov-17 16:25N 51°40' E 003°22'1 1.5
2017-Nov-17 15:56N 51°40' E 003°23'0 0.8
2017-Nov-17 15:25N 51°40' E 003°22'1 3.3
2017-Nov-17 15:00N 51°39' E 003°22'612.1
2017-Nov-17 14:31N 51°34' E 003°27'0 0.8
2017-Nov-17 14:00N 51°33' E 003°28'0 0.3
2017-Nov-17 13:30N 51°33' E 003°28'3 5.5
2017-Nov-17 12:59N 51°36' E 003°24'5 9.3
2017-Nov-17 12:29N 51°40' E 003°22'1 1.1
2017-Nov-17 11:54N 51°40' E 003°23'0 1.1
2017-Nov-17 11:30N 51°40' E 003°22'1 1.1
2017-Nov-17 10:59N 51°40' E 003°21'510.2
2017-Nov-17 10:30N 51°35' E 003°25'3 5.3
2017-Nov-17 10:00N 51°33' E 003°28'0 0.1
2017-Nov-17 09:30N 51°33' E 003°28'2 4.3
2017-Nov-17 08:57N 51°35' E 003°25'5 9.3
2017-Nov-17 08:23N 51°40' E 003°22'0 0.1
2017-Nov-17 07:13N 51°40' E 003°22'0 0.9
2017-Nov-17 06:59N 51°40' E 003°22'2 4.5
2017-Nov-17 06:31N 51°38' E 003°23'611.3
2017-Nov-17 06:01N 51°32' E 003°26'1 1.5
2017-Nov-17 05:29N 51°33' E 003°25'510.0
2017-Nov-17 04:56N 51°38' E 003°22'2 2.9
2017-Nov-17 04:24N 51°40' E 003°22'1 1.6
2017-Nov-17 03:59N 51°40' E 003°23'1 1.0
2017-Nov-17 03:18N 51°40' E 003°22'1 1.4
2017-Nov-17 02:51N 51°39' E 003°22'412.0
2017-Nov-17 02:29N 51°35' E 003°25'3 5.4
2017-Nov-17 02:00N 51°33' E 003°28'0 0.2
2017-Nov-17 01:30N 51°33' E 003°28'1 2.4
2017-Nov-17 00:58N 51°34' E 003°26'510.1
2017-Nov-17 00:30N 51°38' E 003°22'2 3.9
2017-Nov-17 00:00N 51°40' E 003°23'1 0.9
2017-Nov-16 23:26N 51°40' E 003°22'1 1.3
2017-Nov-16 23:00N 51°40' E 003°22'5 9.1
2017-Nov-16 22:30N 51°35' E 003°25'3 5.4
2017-Nov-16 22:00N 51°33' E 003°28'0 0.1
2017-Nov-16 21:28N 51°33' E 003°28'0 0.5
2017-Nov-16 21:00N 51°34' E 003°27'4 7.1
2017-Nov-16 20:30N 51°36' E 003°24'4 7.5
2017-Nov-16 20:00N 51°40' E 003°22'0 0.5
2017-Nov-16 19:30N 51°40' E 003°22'1 1.3
2017-Nov-16 18:59N 51°40' E 003°22'3 5.5
2017-Nov-16 18:30N 51°37' E 003°23'510.8
2017-Nov-16 18:00N 51°32' E 003°26'1 1.4
2017-Nov-16 17:30N 51°33' E 003°26'5 9.4
2017-Nov-16 16:56N 51°38' E 003°22'2 4.8
2017-Nov-16 16:30N 51°40' E 003°23'0 0.5
2017-Nov-16 15:33N 51°40' E 003°22'0 1.5
2017-Nov-16 15:29N 51°40' E 003°22'2 3.9
2017-Nov-16 15:00N 51°38' E 003°23'713.4
2017-Nov-16 14:30N 51°32' E 003°26'0 0.2
2017-Nov-16 13:59N 51°32' E 003°26'4 8.1
2017-Nov-16 13:30N 51°36' E 003°24'4 8.0
2017-Nov-16 12:58N 51°40' E 003°22'1 0.9
2017-Nov-16 12:21N 51°40' E 003°23'0 0.8
2017-Nov-16 12:00N 51°40' E 003°23'1 1.6
2017-Nov-16 11:30N 51°40' E 003°22'611.6
2017-Nov-16 10:58N 51°34' E 003°26'1 0.7
2017-Nov-16 09:34N 51°33' E 003°28'0 3.6
2017-Nov-16 09:30N 51°33' E 003°27'7 8.7
2017-Nov-16 08:41N 51°40' E 003°22'1 2.5
2017-Nov-16 08:18N 51°40' E 003°23'0 1.4
2017-Nov-16 07:58N 51°40' E 003°22'1 1.3
2017-Nov-16 07:26N 51°40' E 003°22'2 4.1
2017-Nov-16 07:00N 51°38' E 003°22'4 8.9
2017-Nov-16 06:30N 51°34' E 003°25'2 4.8
2017-Nov-16 06:00N 51°32' E 003°26'5 8.4
2017-Nov-16 05:27N 51°36' E 003°24'4 7.4
2017-Nov-16 04:54N 51°40' E 003°21'0 0.9
2017-Nov-16 04:30N 51°40' E 003°22'0 0.1
2017-Nov-16 03:58N 51°40' E 003°22'1 3.1
2017-Nov-16 03:30N 51°39' E 003°22'510.4
2017-Nov-16 03:00N 51°34' E 003°26'1 2.5
2017-Nov-16 02:30N 51°33' E 003°28'0 0.0
2017-Nov-16 02:00N 51°33' E 003°28'0 0.1
2017-Nov-16 01:30N 51°33' E 003°28'3 4.1
2017-Nov-16 00:51N 51°35' E 003°25'3 8.9
2017-Nov-16 00:30N 51°38' E 003°22'2 3.4
2017-Nov-16 00:00N 51°40' E 003°22'1 1.3
2017-Nov-15 23:30N 51°40' E 003°23'1 1.3
2017-Nov-15 23:01N 51°40' E 003°22'5 9.3
2017-Nov-15 22:30N 51°35' E 003°25'3 5.6
2017-Nov-15 22:00N 51°33' E 003°28'0 0.1
2017-Nov-15 21:30N 51°33' E 003°28'0 0.0
2017-Nov-15 21:00N 51°33' E 003°28'0 0.8
2017-Nov-15 20:30N 51°33' E 003°27'4 7.1
2017-Nov-15 19:55N 51°37' E 003°23'3 7.2
2017-Nov-15 19:30N 51°40' E 003°22'0 0.3
2017-Nov-15 18:59N 51°40' E 003°22'0 0.8
2017-Nov-15 18:28N 51°40' E 003°22'0 0.7
2017-Nov-15 18:01N 51°40' E 003°22'2 3.7
2017-Nov-15 17:30N 51°38' E 003°22'612.1
2017-Nov-15 17:00N 51°32' E 003°25'611.2
2017-Nov-15 16:30N 51°28' E 003°31'611.8
2017-Nov-15 16:00N 51°27' E 003°40'2 4.4
2017-Nov-15 15:30N 51°28' E 003°43'0 0.0
2017-Nov-15 15:00N 51°28' E 003°43'0 0.2
2017-Nov-15 13:43N 51°28' E 003°43'0 0.0
2017-Nov-15 13:19N 51°28' E 003°43'0 0.0
2017-Nov-15 12:49N 51°28' E 003°43'0 0.0
2017-Nov-15 12:19N 51°28' E 003°43'0 0.0
2017-Nov-15 11:55N 51°28' E 003°43'0 0.0
2017-Nov-15 11:13N 51°28' E 003°43'0 0.0
2017-Nov-15 10:43N 51°28' E 003°43'0 0.0
2017-Nov-15 10:28N 51°28' E 003°43'0 0.0
2017-Nov-15 09:59N 51°28' E 003°43'0 0.0
2017-Nov-15 09:30N 51°28' E 003°43'0 0.0
2017-Nov-15 09:00N 51°28' E 003°43'0 0.0
2017-Nov-15 08:30N 51°28' E 003°43'0 0.0
2017-Nov-15 07:58N 51°28' E 003°43'2 4.7
2017-Nov-15 07:30N 51°27' E 003°40'4 7.6
2017-Nov-15 07:01N 51°26' E 003°35'612.2
2017-Nov-15 06:30N 51°30' E 003°28'2 3.8
2017-Nov-15 06:00N 51°32' E 003°26'1 2.4
2017-Nov-15 05:30N 51°33' E 003°25'510.2
2017-Nov-15 05:00N 51°38' E 003°23'2 3.9
2017-Nov-15 04:24N 51°40' E 003°23'0 0.7
2017-Nov-15 04:00N 51°40' E 003°23'0 0.9
2017-Nov-15 03:29N 51°40' E 003°22'1 2.5
2017-Nov-15 03:00N 51°39' E 003°22'612.8
2017-Nov-15 02:30N 51°33' E 003°25'1 2.4
2017-Nov-15 02:00N 51°32' E 003°26'0 0.3
2017-Nov-15 01:30N 51°32' E 003°26'3 5.7
2017-Nov-15 01:00N 51°34' E 003°24'4 8.9
2017-Nov-15 00:30N 51°39' E 003°22'1 2.3
2017-Nov-14 23:59N 51°40' E 003°22'1 1.1
2017-Nov-14 23:29N 51°40' E 003°23'0 0.7
2017-Nov-14 23:00N 51°40' E 003°22'4 6.8
2017-Nov-14 22:28N 51°37' E 003°23'4 9.0
2017-Nov-14 22:01N 51°33' E 003°28'0 0.0
2017-Nov-14 21:30N 51°33' E 003°28'0 0.0
2017-Nov-14 21:00N 51°33' E 003°28'0 0.0
2017-Nov-14 20:30N 51°33' E 003°28'0 0.9
2017-Nov-14 20:00N 51°33' E 003°27'0 0.9
2017-Nov-14 19:30N 51°33' E 003°26'2 4.4
2017-Nov-14 19:00N 51°35' E 003°24'5 9.6
2017-Nov-14 18:30N 51°40' E 003°23'0 0.3
2017-Nov-14 18:00N 51°40' E 003°22'0 0.7
2017-Nov-14 17:28N 51°40' E 003°23'0 0.8
2017-Nov-14 17:00N 51°40' E 003°22'0 0.8
2017-Nov-14 16:30N 51°40' E 003°22'0 0.0
2017-Nov-14 16:00N 51°40' E 003°22'0 0.5
2017-Nov-14 15:30N 51°40' E 003°22'0 0.5
2017-Nov-14 15:00N 51°40' E 003°22'611.2
2017-Nov-14 14:30N 51°35' E 003°25'3 6.2
2017-Nov-14 14:00N 51°32' E 003°26'1 2.6
2017-Nov-14 13:30N 51°33' E 003°26'3 6.2
2017-Nov-14 13:00N 51°36' E 003°24'4 8.6
2017-Nov-14 12:29N 51°40' E 003°22'1 1.3
2017-Nov-14 12:00N 51°40' E 003°23'1 1.4
2017-Nov-14 11:30N 51°40' E 003°22'1 1.1
2017-Nov-14 11:00N 51°40' E 003°23'1 2.1
2017-Nov-14 10:29N 51°39' E 003°22'612.0
2017-Nov-14 10:00N 51°34' E 003°26'1 2.6
2017-Nov-14 09:31N 51°33' E 003°28'  

Dump ship's entire track history